• Join FlightAware (Why Join?)
  • Login
  • US Flag 
12:10AM EDT


 

Airport Tracker/Info


-or-


 

Live Flight TrackerFlight Track Log ✈ N779NC ✈ 09-Jul-2013 ✈ KJAN - KATL

Flight Track Log - Related Links

Times and Time Zones

All times are in EDT time to prevent confusion due to time zone crossing. See the N779NC flight status page for this flight to view local times or setup timezone preferences in your user account.

Time Position Orientation Groundspeed Altitude Reporting Facility
EDT Latitude Longitude Course Direction KTS MPH feet Rate Location/Type
02:16PM 32.4039 -89.9022 90° East 267 307 6,800  Level Memphis Center
02:17PM 32.4014 -89.8086 92° East 278 320 9,000 1,980 Climbing Memphis Center
02:18PM 32.3167 -89.9493 90° East  Level FlightAware Approximate
02:18PM 32.4092 -89.7125 84° East 283 326 10,800  Level Memphis Center
02:19PM 32.3167 -89.8008 90° East  Level FlightAware Approximate
02:19PM 32.4086 -89.6044 90° East 304 350 11,800  Level Memphis Center
02:20PM 32.3270 -89.6529 84° East  Level FlightAware Approximate
02:20PM 32.4014 -89.4667 94° East 351 404 13,500  Level Memphis Center
02:21PM 32.3334 -89.5047 90° East  Level FlightAware Approximate
02:22PM 32.4036 -89.2181 89° East 373 429 16,700  Level Memphis Center
02:23PM 32.3897 -89.0878 97° East 385 443 17,800 1,080 Climbing Memphis Center
02:24PM 32.3800 -88.9578 95° East 391 450 18,900 1,200 Climbing Memphis Center
02:25PM 32.3722 -88.8250 94° East 391 450 20,200 1,260 Climbing Memphis Center
02:26PM 32.3894 -88.6942 81° East 397 457 21,500 1,140 Climbing Memphis Center
02:27PM 32.4189 -88.5658 75° East 402 463 22,500 1,080 Climbing Memphis Center
02:28PM 32.4378 -88.4300 81° East 408 470 23,700 960 Climbing Memphis Center
02:30PM 32.4678 -88.1306 83° East 435 501 25,700 840 Climbing Atlanta Center
02:31PM 32.4994 -87.9914 75° East 435 501 26,500 660 Climbing Atlanta Center
02:32PM 32.5292 -87.8450 76° East 440 506 27,100 960 Climbing Atlanta Center
02:33PM 32.5625 -87.7061 74° East 445 512 28,500 900 Climbing Atlanta Center
02:34PM 32.6000 -87.5669 72° East 440 506 29,000 240 Climbing Atlanta Center
02:35PM 32.6311 -87.4253 75° East 440 506 29,000  Level Atlanta Center
02:36PM 32.6683 -87.2836 73° East 440 506 29,000  Level Atlanta Center
02:37PM 32.7033 -87.1417 74° East 440 506 29,000  Level Atlanta Center
02:38PM 32.7361 -86.9972 75° East 440 506 29,000  Level Atlanta Center
02:39PM 32.7728 -86.8503 73° East 446 513 29,000  Level Atlanta Center
02:40PM 32.8094 -86.7056 73° East 452 520 29,000  Level Atlanta Center
02:41PM 32.8461 -86.5558 74° East 452 520 29,000 -780 Level Atlanta Center
02:42PM 32.8803 -86.4083 75° East 452 520 27,500 -1,740 Descending Atlanta Center
02:43PM 32.9081 -86.2631 77° East 452 520 25,600 -1,680 Descending Atlanta Center
02:44PM 32.9189 -86.1150 85° East 452 520 24,200 -840 Descending Atlanta Center
02:45PM 32.9089 -85.9664 95° East 440 506 24,000 -120 Descending Atlanta Center
02:46PM 32.9067 -85.8228 91° East 440 506 24,000 -660 Level Atlanta Center
02:47PM 32.9147 -85.6992 86° East 435 501 22,700 -2,400 Descending Atlanta Center
02:48PM 32.9539 -85.5686 70° East 420 483 19,300 -3,180 Descending Atlanta Center
02:49PM 33.0097 -85.4458 62° Northeast 414 476 16,400 -2,520 Descending Atlanta Center
02:50PM 33.0467 -85.3225 70° East 407 468 14,300 -1,200 Descending Atlanta Center
02:51PM 33.0689 -85.1817 79° East 397 457 14,000 -180 Descending Atlanta Center
02:52PM 33.1158 -85.0631 65° Northeast 391 450 14,000  Level Atlanta Center
02:53PM 33.1958 -84.9722 44° Northeast 376 433 14,000 -60 Level Atlanta Center
02:54PM 33.2675 -84.8786 48° Northeast 376 433 13,900 -600 Descending Atlanta Center
02:55PM 33.3433 -84.7897 44° Northeast 370 426 12,900 -960 Descending Atlanta Center
02:56PM 33.4083 -84.7133 44° Northeast 364 419 12,000 -480 Descending Atlanta Center
02:57PM 33.4714 -84.6414 44° Northeast 330 380 12,000  Level Atlanta Center
02:58PM 33.5239 -84.5819 43° Northeast 275 316 12,000  Level Atlanta Center
02:59PM 33.5825 -84.5275 38° Northeast 256 295 12,000 -300 Level Atlanta Center
03:00PM 33.6017 -84.4453 74° East 246 283 11,500 -960 Descending Atlanta Center
03:01PM 33.5833 -84.3667 106° East 227 261 10,200 -1,380 Descending Atlanta TRACON
03:02PM 33.5333 -84.3000 132° Southeast 213 245 8,700 -1,500 Descending Atlanta TRACON
03:03PM 33.5333 -84.2500 90° East 213 245 7,300 -900 Descending Atlanta TRACON
03:04PM 33.5333 -84.1667 90° East 211 243 7,000 -1,080 Descending Atlanta TRACON
03:05PM 33.5500 -84.1000 73° East 216 249 5,200 -1,740 Descending Atlanta TRACON
03:06PM 33.5833 -84.0667 40° Northeast 214 246 3,800 -1,200 Descending Atlanta TRACON
03:07PM 33.6000 -84.1333 287° West 193 222 3,000 -420 Descending Atlanta TRACON
03:08PM 33.6167 -84.1833 292° West 192 221 3,000  Level Atlanta TRACON
03:09PM 33.6167 -84.2667 270° West 192 221 3,000 -240 Level Atlanta TRACON
03:10PM 33.6167 -84.3167 270° West 186 214 2,600 -660 Descending Atlanta TRACON
03:11PM 33.6167 -84.3667 270° West 145 167 1,800 -840 Descending Atlanta TRACON
03:13PM 33.6333 -84.4167 40° Northeast  Level FlightAware Approximate
03:20PM 33.6367 -84.4279 40° Northeast  Level Estimated
03:21PM 33.6367 -84.4279 40° Northeast  Level Estimated
03:22PM 33.6367 -84.4279 40° Northeast  Level Estimated